METAR Data
IDs: Format: Raw Decoded Include TAF

Data at: 0526 UTC 19 Aug 2019

KRUE 190453Z AUTO 00000KT 10SM CLR 24/22 A2996 RMK AO2 SLP137 T02390217 $
KRUE 190353Z AUTO 00000KT 10SM CLR 25/22 A2996 RMK AO2 SLP136 T02500222 $
KRUE 190253Z AUTO 00000KT 10SM CLR 26/22 A2995 RMK AO2 SLP132 T02560217 51030 $
KRUE 190153Z AUTO VRB03KT 10SM CLR 25/21 A2993 RMK AO2 SLP126 T02500211 $
KRUE 190053Z AUTO 00000KT 10SM CLR 26/22 A2989 RMK AO2 SLP114 T02610217 $
KRUE 182353Z AUTO 00000KT 10SM CLR 29/21 A2986 RMK AO2 SLP102 60000 T02940206 10322 20261 55009 $
KRUE 182253Z AUTO 00000KT 10SM CLR 29/19 A2984 RMK AO2 SLP097 T02940194 $
KRUE 182153Z AUTO VRB06KT 10SM CLR 28/19 A2984 RMK AO2 RAB2055E16 SLP097 P0000 T02780194 $
KRUE 182053Z AUTO 26006KT 10SM FEW100 FEW120 28/18 A2988 RMK AO2 LTG DSNT SE-W SLP111 T02830183 58013 $
KRUE 181953Z AUTO 27003KT 10SM CLR 31/23 A2991 RMK AO2 LTG DSNT ALQDS SLP120 T03060233 $
KRUE 181853Z AUTO 26005KT 10SM CLR 32/23 A2992 RMK AO2 LTG DSNT E SLP123 T03170228 $
KRUE 181753Z AUTO 22006KT 10SM FEW045 FEW065 SCT080 32/24 A2992 RMK AO2 SLP124 T03170239 10333 20239 58002 $
KRUE 181743Z AUTO 24006KT 10SM FEW045 SCT070 BKN080 32/23 A2992 RMK AO2 T03170233 $
KRUE 181728Z AUTO VRB06KT 10SM VCTS FEW039 SCT048 33/24 A2992 RMK AO2 T03280239 $
KRUE 181653Z AUTO 24003KT 10SM SCT034 32/24 A2994 RMK AO2 LTG DSNT W SLP129 T03220239 $
KRUE 181553Z AUTO 20004KT 10SM FEW023 SCT035 31/24 A2994 RMK AO2 SLP130 T03060239 $
KRUE 181453Z AUTO VRB03KT 10SM CLR 29/23 A2993 RMK AO2 SLP127 T02940233 51015 $
KRUE 181353Z AUTO 00000KT 10SM SCT023 28/23 A2993 RMK AO2 SLP126 T02780228
KRUE 181253Z AUTO 07003KT 10SM CLR 27/22 A2990 RMK AO2 SLP117 T02670222
KRUE 181153Z AUTO 12003KT 10SM CLR 24/22 A2988 RMK AO2 SLP111 T02390217 10267 20233 53002
KRUE 181053Z AUTO 00000KT 10SM CLR 24/21 A2988 RMK AO2 SLP110 T02390211
KRUE 180953Z AUTO 10SM CLR 24/22 A2988 RMK AO2 SLP109 T02390217
KRUE 180853Z AUTO 00000KT 10SM CLR 25/21 A2988 RMK AO2 SLP109 T02500211 55000
KRUE 180753Z AUTO 11003KT 10SM CLR 25/21 A2987 RMK AO2 SLP105 T02500211
KRUE 180653Z AUTO VRB03KT 10SM CLR 26/21 A2988 RMK AO2 SLP109 T02610211
KRUE 180553Z AUTO 00000KT 10SM CLR 27/21 A2988 RMK AO2 SLP109 T02670211 10328 20261 403500211 50001
KRUE 180453Z AUTO 00000KT 10SM CLR 27/21 A2989 RMK AO2 SLP113 T02670211
KRUE 180353Z AUTO 00000KT 10SM CLR 26/21 A2989 RMK AO2 SLP111 T02610211
KRUE 180253Z AUTO 00000KT 10SM CLR 28/21 A2988 RMK AO2 SLP108 T02830211 53015
KRUE 180153Z AUTO 00000KT 10SM CLR 28/21 A2985 RMK AO2 SLP100 T02830211
KRUE 180053Z AUTO 00000KT 10SM CLR 31/21 A2984 RMK AO2 SLP096 T03110206
KRUE 172353Z AUTO 13003KT 10SM FEW070 33/19 A2983 RMK AO2 SLP093 T03330194 10350 20333 56008
KRUE 172253Z AUTO 10007KT 10SM BKN065 34/21 A2984 RMK AO2 SLP095 T03390211
KRUE 172153Z AUTO 08008KT 040V110 10SM CLR 34/22 A2984 RMK AO2 SLP097 T03440217
KRUE 172053Z AUTO VRB04KT 10SM CLR 34/23 A2986 RMK AO2 SLP102 T03440228 56024
KRUE 171953Z AUTO 07007KT 10SM CLR 34/23 A2988 RMK AO2 SLP110 T03440228
KRUE 171853Z AUTO 00000KT 10SM FEW050 34/22 A2989 RMK AO2 SLP114 T03440217
KRUE 171753Z AUTO 00000KT 10SM CLR 34/21 A2993 RMK AO2 SLP126 T03390211 10344 20211 50000